sensor_id;sensor_type;location;lat;lon;timestamp;P1;durP1;ratioP1;P2;durP2;ratioP2
27209;SDS011;14721;42.668;23.386;2023-05-07T00:01:49;8.00;;;3.90;;
27209;SDS011;14721;42.668;23.386;2023-05-07T00:04:15;8.37;;;4.33;;
27209;SDS011;14721;42.668;23.386;2023-05-07T00:06:40;6.97;;;4.10;;
27209;SDS011;14721;42.668;23.386;2023-05-07T00:09:06;8.43;;;3.90;;
27209;SDS011;14721;42.668;23.386;2023-05-07T00:11:38;5.87;;;4.00;;
27209;SDS011;14721;42.668;23.386;2023-05-07T00:14:03;4.77;;;3.60;;
27209;SDS011;14721;42.668;23.386;2023-05-07T00:16:29;6.13;;;3.30;;
27209;SDS011;14721;42.668;23.386;2023-05-07T00:18:55;7.63;;;4.43;;
27209;SDS011;14721;42.668;23.386;2023-05-07T00:21:20;9.93;;;5.67;;
27209;SDS011;14721;42.668;23.386;2023-05-07T00:23:46;9.80;;;5.73;;
27209;SDS011;14721;42.668;23.386;2023-05-07T00:26:12;10.60;;;5.37;;
27209;SDS011;14721;42.668;23.386;2023-05-07T00:28:37;15.27;;;4.80;;
27209;SDS011;14721;42.668;23.386;2023-05-07T00:31:03;8.93;;;5.40;;
27209;SDS011;14721;42.668;23.386;2023-05-07T00:33:28;8.80;;;5.10;;
27209;SDS011;14721;42.668;23.386;2023-05-07T00:35:54;10.23;;;5.33;;
27209;SDS011;14721;42.668;23.386;2023-05-07T00:38:20;9.13;;;5.17;;
27209;SDS011;14721;42.668;23.386;2023-05-07T00:40:47;6.00;;;3.97;;
27209;SDS011;14721;42.668;23.386;2023-05-07T00:43:13;11.33;;;5.40;;
27209;SDS011;14721;42.668;23.386;2023-05-07T00:45:39;7.80;;;4.30;;
27209;SDS011;14721;42.668;23.386;2023-05-07T00:48:04;13.07;;;3.87;;
27209;SDS011;14721;42.668;23.386;2023-05-07T00:50:30;6.87;;;3.73;;
27209;SDS011;14721;42.668;23.386;2023-05-07T00:52:56;6.30;;;3.70;;
27209;SDS011;14721;42.668;23.386;2023-05-07T00:55:23;5.47;;;3.60;;
27209;SDS011;14721;42.668;23.386;2023-05-07T00:57:50;5.80;;;3.80;;
27209;SDS011;14721;42.668;23.386;2023-05-07T01:00:16;6.23;;;3.67;;
27209;SDS011;14721;42.668;23.386;2023-05-07T01:02:43;6.40;;;3.10;;
27209;SDS011;14721;42.668;23.386;2023-05-07T01:05:09;5.77;;;4.07;;
27209;SDS011;14721;42.668;23.386;2023-05-07T01:07:47;7.30;;;3.37;;
27209;SDS011;14721;42.668;23.386;2023-05-07T01:10:15;8.60;;;4.17;;
27209;SDS011;14721;42.668;23.386;2023-05-07T01:12:40;5.97;;;3.73;;
27209;SDS011;14721;42.668;23.386;2023-05-07T01:15:08;7.77;;;3.17;;
27209;SDS011;14721;42.668;23.386;2023-05-07T01:17:35;7.37;;;3.53;;
27209;SDS011;14721;42.668;23.386;2023-05-07T01:20:04;5.53;;;3.60;;
27209;SDS011;14721;42.668;23.386;2023-05-07T01:22:34;6.70;;;3.30;;
27209;SDS011;14721;42.668;23.386;2023-05-07T01:25:03;11.37;;;4.40;;
27209;SDS011;14721;42.668;23.386;2023-05-07T01:27:30;7.80;;;3.73;;
27209;SDS011;14721;42.668;23.386;2023-05-07T01:29:58;6.57;;;3.53;;
27209;SDS011;14721;42.668;23.386;2023-05-07T01:32:27;5.40;;;3.40;;
27209;SDS011;14721;42.668;23.386;2023-05-07T01:34:57;5.33;;;3.50;;
27209;SDS011;14721;42.668;23.386;2023-05-07T01:37:25;8.27;;;4.20;;
27209;SDS011;14721;42.668;23.386;2023-05-07T01:39:51;5.07;;;3.63;;
27209;SDS011;14721;42.668;23.386;2023-05-07T01:42:18;7.70;;;4.10;;
27209;SDS011;14721;42.668;23.386;2023-05-07T01:44:43;6.83;;;4.00;;
27209;SDS011;14721;42.668;23.386;2023-05-07T01:47:09;6.93;;;4.00;;
27209;SDS011;14721;42.668;23.386;2023-05-07T01:49:35;11.27;;;5.30;;
27209;SDS011;14721;42.668;23.386;2023-05-07T01:52:01;10.80;;;5.13;;
27209;SDS011;14721;42.668;23.386;2023-05-07T01:54:27;8.13;;;4.70;;
27209;SDS011;14721;42.668;23.386;2023-05-07T01:56:53;8.63;;;5.10;;
27209;SDS011;14721;42.668;23.386;2023-05-07T01:59:19;8.80;;;4.83;;
27209;SDS011;14721;42.668;23.386;2023-05-07T02:01:44;10.77;;;5.30;;
27209;SDS011;14721;42.668;23.386;2023-05-07T02:04:10;8.27;;;5.40;;
27209;SDS011;14721;42.668;23.386;2023-05-07T02:06:35;9.77;;;5.17;;
27209;SDS011;14721;42.668;23.386;2023-05-07T02:09:01;8.77;;;5.17;;
27209;SDS011;14721;42.668;23.386;2023-05-07T02:11:27;13.57;;;6.90;;
27209;SDS011;14721;42.668;23.386;2023-05-07T02:13:52;9.50;;;5.63;;
27209;SDS011;14721;42.668;23.386;2023-05-07T02:16:18;10.67;;;6.27;;
27209;SDS011;14721;42.668;23.386;2023-05-07T02:18:44;11.73;;;6.40;;
27209;SDS011;14721;42.668;23.386;2023-05-07T02:21:10;12.13;;;6.60;;
27209;SDS011;14721;42.668;23.386;2023-05-07T02:23:36;12.57;;;6.10;;
27209;SDS011;14721;42.668;23.386;2023-05-07T02:26:01;10.60;;;6.70;;
27209;SDS011;14721;42.668;23.386;2023-05-07T02:28:26;14.43;;;7.13;;
27209;SDS011;14721;42.668;23.386;2023-05-07T02:30:52;11.10;;;6.23;;
27209;SDS011;14721;42.668;23.386;2023-05-07T02:33:18;11.53;;;7.30;;
27209;SDS011;14721;42.668;23.386;2023-05-07T02:35:44;12.83;;;6.93;;
27209;SDS011;14721;42.668;23.386;2023-05-07T02:38:09;11.53;;;6.90;;
27209;SDS011;14721;42.668;23.386;2023-05-07T02:40:36;12.87;;;6.77;;
27209;SDS011;14721;42.668;23.386;2023-05-07T02:43:04;12.93;;;7.03;;
27209;SDS011;14721;42.668;23.386;2023-05-07T02:45:31;13.83;;;7.87;;
27209;SDS011;14721;42.668;23.386;2023-05-07T02:47:58;17.20;;;7.77;;
27209;SDS011;14721;42.668;23.386;2023-05-07T02:50:23;15.47;;;8.20;;
27209;SDS011;14721;42.668;23.386;2023-05-07T02:52:50;14.07;;;8.10;;
27209;SDS011;14721;42.668;23.386;2023-05-07T02:55:16;13.70;;;8.27;;
27209;SDS011;14721;42.668;23.386;2023-05-07T02:57:41;13.60;;;8.13;;
27209;SDS011;14721;42.668;23.386;2023-05-07T03:00:10;12.93;;;7.93;;
27209;SDS011;14721;42.668;23.386;2023-05-07T03:02:39;16.70;;;8.90;;
27209;SDS011;14721;42.668;23.386;2023-05-07T03:05:05;16.37;;;9.20;;
27209;SDS011;14721;42.668;23.386;2023-05-07T03:07:35;16.33;;;8.93;;
27209;SDS011;14721;42.668;23.386;2023-05-07T03:10:01;18.73;;;9.63;;
27209;SDS011;14721;42.668;23.386;2023-05-07T03:12:32;14.87;;;8.47;;
27209;SDS011;14721;42.668;23.386;2023-05-07T03:14:58;18.80;;;9.20;;
27209;SDS011;14721;42.668;23.386;2023-05-07T03:17:26;15.03;;;8.90;;
27209;SDS011;14721;42.668;23.386;2023-05-07T03:19:51;16.00;;;9.70;;
27209;SDS011;14721;42.668;23.386;2023-05-07T03:22:17;25.83;;;8.40;;
27209;SDS011;14721;42.668;23.386;2023-05-07T03:24:42;17.43;;;10.20;;
27209;SDS011;14721;42.668;23.386;2023-05-07T03:27:08;18.43;;;9.83;;
27209;SDS011;14721;42.668;23.386;2023-05-07T03:29:33;18.50;;;8.93;;
27209;SDS011;14721;42.668;23.386;2023-05-07T03:31:58;17.07;;;9.43;;
27209;SDS011;14721;42.668;23.386;2023-05-07T03:34:24;20.00;;;10.33;;
27209;SDS011;14721;42.668;23.386;2023-05-07T03:36:50;14.97;;;9.30;;
27209;SDS011;14721;42.668;23.386;2023-05-07T03:39:15;14.80;;;7.73;;
27209;SDS011;14721;42.668;23.386;2023-05-07T03:41:41;13.53;;;7.63;;
27209;SDS011;14721;42.668;23.386;2023-05-07T03:44:06;15.20;;;7.60;;
27209;SDS011;14721;42.668;23.386;2023-05-07T03:46:32;15.60;;;7.43;;
27209;SDS011;14721;42.668;23.386;2023-05-07T03:48:58;13.30;;;7.70;;
27209;SDS011;14721;42.668;23.386;2023-05-07T03:51:24;13.60;;;7.63;;
27209;SDS011;14721;42.668;23.386;2023-05-07T03:53:52;14.00;;;7.03;;
27209;SDS011;14721;42.668;23.386;2023-05-07T03:56:18;10.63;;;6.63;;
27209;SDS011;14721;42.668;23.386;2023-05-07T03:58:44;14.10;;;7.27;;
27209;SDS011;14721;42.668;23.386;2023-05-07T04:01:10;15.97;;;6.90;;
27209;SDS011;14721;42.668;23.386;2023-05-07T04:03:36;14.97;;;6.20;;
27209;SDS011;14721;42.668;23.386;2023-05-07T04:06:02;10.25;;;5.70;;
27209;SDS011;14721;42.668;23.386;2023-05-07T04:08:27;8.65;;;6.00;;
27209;SDS011;14721;42.668;23.386;2023-05-07T04:10:57;13.60;;;5.97;;
27209;SDS011;14721;42.668;23.386;2023-05-07T04:13:23;9.50;;;5.85;;
27209;SDS011;14721;42.668;23.386;2023-05-07T04:15:50;11.50;;;6.28;;
27209;SDS011;14721;42.668;23.386;2023-05-07T04:18:17;11.88;;;6.50;;
27209;SDS011;14721;42.668;23.386;2023-05-07T04:20:42;9.00;;;6.72;;
27209;SDS011;14721;42.668;23.386;2023-05-07T04:23:08;11.63;;;7.07;;
27209;SDS011;14721;42.668;23.386;2023-05-07T04:25:33;12.60;;;7.30;;
27209;SDS011;14721;42.668;23.386;2023-05-07T04:27:59;12.63;;;6.65;;
27209;SDS011;14721;42.668;23.386;2023-05-07T04:30:25;9.05;;;5.90;;
27209;SDS011;14721;42.668;23.386;2023-05-07T04:32:50;10.20;;;6.50;;
27209;SDS011;14721;42.668;23.386;2023-05-07T04:35:16;10.68;;;6.70;;
27209;SDS011;14721;42.668;23.386;2023-05-07T04:37:42;9.60;;;6.03;;
27209;SDS011;14721;42.668;23.386;2023-05-07T04:40:07;10.75;;;6.43;;
27209;SDS011;14721;42.668;23.386;2023-05-07T04:42:34;17.95;;;6.45;;
27209;SDS011;14721;42.668;23.386;2023-05-07T04:45:01;12.45;;;6.35;;
27209;SDS011;14721;42.668;23.386;2023-05-07T04:47:27;10.45;;;6.68;;
27209;SDS011;14721;42.668;23.386;2023-05-07T04:49:53;13.65;;;6.68;;
27209;SDS011;14721;42.668;23.386;2023-05-07T04:52:18;9.95;;;6.57;;
27209;SDS011;14721;42.668;23.386;2023-05-07T04:54:44;7.82;;;5.80;;
27209;SDS011;14721;42.668;23.386;2023-05-07T04:57:10;16.92;;;6.88;;
27209;SDS011;14721;42.668;23.386;2023-05-07T04:59:35;10.85;;;6.35;;
27209;SDS011;14721;42.668;23.386;2023-05-07T05:02:01;10.05;;;6.47;;
27209;SDS011;14721;42.668;23.386;2023-05-07T05:04:26;12.32;;;6.45;;
27209;SDS011;14721;42.668;23.386;2023-05-07T05:06:52;9.52;;;5.97;;
27209;SDS011;14721;42.668;23.386;2023-05-07T05:09:18;11.38;;;6.40;;
27209;SDS011;14721;42.668;23.386;2023-05-07T05:11:43;9.48;;;5.80;;
27209;SDS011;14721;42.668;23.386;2023-05-07T05:14:11;12.48;;;6.05;;
27209;SDS011;14721;42.668;23.386;2023-05-07T05:16:37;10.90;;;6.43;;
27209;SDS011;14721;42.668;23.386;2023-05-07T05:19:02;12.57;;;6.20;;
27209;SDS011;14721;42.668;23.386;2023-05-07T05:21:28;9.07;;;6.22;;
27209;SDS011;14721;42.668;23.386;2023-05-07T05:23:54;10.20;;;6.25;;
27209;SDS011;14721;42.668;23.386;2023-05-07T05:26:19;9.77;;;6.05;;
27209;SDS011;14721;42.668;23.386;2023-05-07T05:28:46;10.13;;;6.35;;
27209;SDS011;14721;42.668;23.386;2023-05-07T05:31:12;14.02;;;5.85;;
27209;SDS011;14721;42.668;23.386;2023-05-07T05:33:39;12.20;;;6.03;;
27209;SDS011;14721;42.668;23.386;2023-05-07T05:36:05;9.57;;;6.22;;
27209;SDS011;14721;42.668;23.386;2023-05-07T05:38:31;12.05;;;6.32;;
27209;SDS011;14721;42.668;23.386;2023-05-07T05:40:57;11.60;;;6.70;;
27209;SDS011;14721;42.668;23.386;2023-05-07T05:43:23;8.52;;;5.97;;
27209;SDS011;14721;42.668;23.386;2023-05-07T05:45:49;14.40;;;6.72;;
27209;SDS011;14721;42.668;23.386;2023-05-07T05:48:14;11.80;;;6.10;;
27209;SDS011;14721;42.668;23.386;2023-05-07T05:50:41;11.43;;;6.07;;
27209;SDS011;14721;42.668;23.386;2023-05-07T05:53:07;9.38;;;5.78;;
27209;SDS011;14721;42.668;23.386;2023-05-07T05:55:33;12.35;;;6.60;;
27209;SDS011;14721;42.668;23.386;2023-05-07T05:58:02;8.27;;;6.28;;
27209;SDS011;14721;42.668;23.386;2023-05-07T06:00:28;11.77;;;5.95;;
27209;SDS011;14721;42.668;23.386;2023-05-07T06:02:54;11.35;;;6.55;;
27209;SDS011;14721;42.668;23.386;2023-05-07T06:05:20;13.18;;;6.38;;
27209;SDS011;14721;42.668;23.386;2023-05-07T06:07:45;10.38;;;5.63;;
27209;SDS011;14721;42.668;23.386;2023-05-07T06:10:11;9.40;;;6.32;;
27209;SDS011;14721;42.668;23.386;2023-05-07T06:12:36;10.90;;;7.03;;
27209;SDS011;14721;42.668;23.386;2023-05-07T06:15:02;9.27;;;6.10;;
27209;SDS011;14721;42.668;23.386;2023-05-07T06:17:28;10.23;;;6.35;;
27209;SDS011;14721;42.668;23.386;2023-05-07T06:19:53;12.50;;;7.00;;
27209;SDS011;14721;42.668;23.386;2023-05-07T06:22:19;8.65;;;5.65;;
27209;SDS011;14721;42.668;23.386;2023-05-07T06:24:44;16.73;;;6.60;;
27209;SDS011;14721;42.668;23.386;2023-05-07T06:27:11;10.43;;;6.40;;
27209;SDS011;14721;42.668;23.386;2023-05-07T06:29:36;12.88;;;6.10;;
27209;SDS011;14721;42.668;23.386;2023-05-07T06:34:34;11.15;;;6.80;;
27209;SDS011;14721;42.668;23.386;2023-05-07T06:36:59;12.05;;;6.32;;
27209;SDS011;14721;42.668;23.386;2023-05-07T06:39:25;11.05;;;6.40;;
27209;SDS011;14721;42.668;23.386;2023-05-07T06:41:50;9.73;;;5.85;;
27209;SDS011;14721;42.668;23.386;2023-05-07T06:44:16;9.63;;;6.20;;
27209;SDS011;14721;42.668;23.386;2023-05-07T06:46:41;15.55;;;6.88;;
27209;SDS011;14721;42.668;23.386;2023-05-07T06:49:07;13.05;;;6.68;;
27209;SDS011;14721;42.668;23.386;2023-05-07T06:51:32;8.50;;;6.00;;
27209;SDS011;14721;42.668;23.386;2023-05-07T06:53:58;10.15;;;5.57;;
27209;SDS011;14721;42.668;23.386;2023-05-07T06:56:24;13.27;;;6.95;;
27209;SDS011;14721;42.668;23.386;2023-05-07T06:58:50;13.23;;;6.40;;
27209;SDS011;14721;42.668;23.386;2023-05-07T07:01:15;9.93;;;5.85;;
27209;SDS011;14721;42.668;23.386;2023-05-07T07:03:41;12.02;;;5.70;;
27209;SDS011;14721;42.668;23.386;2023-05-07T07:06:06;8.60;;;6.50;;
27209;SDS011;14721;42.668;23.386;2023-05-07T07:08:32;11.15;;;5.82;;
27209;SDS011;14721;42.668;23.386;2023-05-07T07:10:58;11.90;;;6.13;;
27209;SDS011;14721;42.668;23.386;2023-05-07T07:13:23;9.85;;;5.60;;
27209;SDS011;14721;42.668;23.386;2023-05-07T07:15:49;11.02;;;6.75;;
27209;SDS011;14721;42.668;23.386;2023-05-07T07:18:14;11.43;;;5.82;;
27209;SDS011;14721;42.668;23.386;2023-05-07T07:20:40;10.50;;;5.13;;
27209;SDS011;14721;42.668;23.386;2023-05-07T07:23:05;13.32;;;5.75;;
27209;SDS011;14721;42.668;23.386;2023-05-07T07:25:31;10.88;;;6.35;;
27209;SDS011;14721;42.668;23.386;2023-05-07T07:27:57;13.10;;;6.55;;
27209;SDS011;14721;42.668;23.386;2023-05-07T07:30:22;7.05;;;5.35;;
27209;SDS011;14721;42.668;23.386;2023-05-07T07:32:51;11.00;;;6.40;;
27209;SDS011;14721;42.668;23.386;2023-05-07T07:35:17;10.35;;;6.00;;
27209;SDS011;14721;42.668;23.386;2023-05-07T07:37:43;9.40;;;5.40;;
27209;SDS011;14721;42.668;23.386;2023-05-07T07:40:08;8.73;;;6.03;;
27209;SDS011;14721;42.668;23.386;2023-05-07T07:42:34;8.55;;;6.25;;
27209;SDS011;14721;42.668;23.386;2023-05-07T07:45:00;14.73;;;6.75;;
27209;SDS011;14721;42.668;23.386;2023-05-07T07:47:25;9.52;;;6.15;;
27209;SDS011;14721;42.668;23.386;2023-05-07T07:49:51;11.43;;;6.00;;
27209;SDS011;14721;42.668;23.386;2023-05-07T07:52:16;10.38;;;6.25;;
27209;SDS011;14721;42.668;23.386;2023-05-07T07:54:42;9.80;;;6.10;;
27209;SDS011;14721;42.668;23.386;2023-05-07T07:57:08;10.90;;;6.82;;
27209;SDS011;14721;42.668;23.386;2023-05-07T07:59:33;10.25;;;6.32;;
27209;SDS011;14721;42.668;23.386;2023-05-07T08:01:58;13.05;;;7.07;;
27209;SDS011;14721;42.668;23.386;2023-05-07T08:04:25;13.30;;;7.72;;
27209;SDS011;14721;42.668;23.386;2023-05-07T08:06:51;10.43;;;7.10;;
27209;SDS011;14721;42.668;23.386;2023-05-07T08:09:16;11.02;;;7.82;;
27209;SDS011;14721;42.668;23.386;2023-05-07T08:11:42;11.70;;;7.05;;
27209;SDS011;14721;42.668;23.386;2023-05-07T08:14:07;13.48;;;6.97;;
27209;SDS011;14721;42.668;23.386;2023-05-07T08:16:33;11.63;;;5.88;;
27209;SDS011;14721;42.668;23.386;2023-05-07T08:18:58;9.43;;;5.85;;
27209;SDS011;14721;42.668;23.386;2023-05-07T08:21:23;11.13;;;6.75;;
27209;SDS011;14721;42.668;23.386;2023-05-07T08:23:51;10.07;;;6.40;;
27209;SDS011;14721;42.668;23.386;2023-05-07T08:26:17;10.40;;;6.63;;
27209;SDS011;14721;42.668;23.386;2023-05-07T08:28:42;10.70;;;6.10;;
27209;SDS011;14721;42.668;23.386;2023-05-07T08:31:10;9.88;;;6.63;;
27209;SDS011;14721;42.668;23.386;2023-05-07T08:33:36;10.45;;;5.25;;
27209;SDS011;14721;42.668;23.386;2023-05-07T08:36:03;10.57;;;6.10;;
27209;SDS011;14721;42.668;23.386;2023-05-07T08:38:29;9.20;;;5.95;;
27209;SDS011;14721;42.668;23.386;2023-05-07T08:40:55;10.05;;;6.75;;
27209;SDS011;14721;42.668;23.386;2023-05-07T08:43:20;9.20;;;5.90;;
27209;SDS011;14721;42.668;23.386;2023-05-07T08:45:51;12.75;;;6.25;;
27209;SDS011;14721;42.668;23.386;2023-05-07T08:48:20;9.50;;;4.57;;
27209;SDS011;14721;42.668;23.386;2023-05-07T08:50:50;9.65;;;6.22;;
27209;SDS011;14721;42.668;23.386;2023-05-07T08:53:16;6.63;;;4.95;;
27209;SDS011;14721;42.668;23.386;2023-05-07T08:55:42;9.77;;;5.10;;
27209;SDS011;14721;42.668;23.386;2023-05-07T08:58:08;8.02;;;4.75;;
27209;SDS011;14721;42.668;23.386;2023-05-07T09:00:33;7.25;;;4.30;;
27209;SDS011;14721;42.668;23.386;2023-05-07T09:03:01;8.00;;;4.47;;
27209;SDS011;14721;42.668;23.386;2023-05-07T09:05:26;7.68;;;4.75;;
27209;SDS011;14721;42.668;23.386;2023-05-07T09:07:52;8.50;;;3.72;;
27209;SDS011;14721;42.668;23.386;2023-05-07T09:10:17;6.43;;;3.30;;
27209;SDS011;14721;42.668;23.386;2023-05-07T09:12:43;7.60;;;3.63;;
27209;SDS011;14721;42.668;23.386;2023-05-07T09:15:11;5.18;;;3.00;;
27209;SDS011;14721;42.668;23.386;2023-05-07T09:17:37;6.25;;;2.92;;
27209;SDS011;14721;42.668;23.386;2023-05-07T09:20:03;3.97;;;2.78;;
27209;SDS011;14721;42.668;23.386;2023-05-07T09:22:33;5.85;;;2.70;;
27209;SDS011;14721;42.668;23.386;2023-05-07T09:24:59;4.00;;;2.78;;
27209;SDS011;14721;42.668;23.386;2023-05-07T09:27:25;4.05;;;3.00;;
27209;SDS011;14721;42.668;23.386;2023-05-07T09:29:51;6.70;;;4.60;;
27209;SDS011;14721;42.668;23.386;2023-05-07T09:32:16;6.32;;;3.65;;
27209;SDS011;14721;42.668;23.386;2023-05-07T09:34:42;6.53;;;4.22;;
27209;SDS011;14721;42.668;23.386;2023-05-07T09:37:08;6.70;;;3.67;;
27209;SDS011;14721;42.668;23.386;2023-05-07T09:39:40;10.75;;;5.13;;
27209;SDS011;14721;42.668;23.386;2023-05-07T09:42:10;7.10;;;4.85;;
27209;SDS011;14721;42.668;23.386;2023-05-07T09:44:44;8.05;;;4.88;;
27209;SDS011;14721;42.668;23.386;2023-05-07T09:47:10;11.55;;;4.00;;
27209;SDS011;14721;42.668;23.386;2023-05-07T09:49:41;6.95;;;3.60;;
27209;SDS011;14721;42.668;23.386;2023-05-07T09:52:10;8.68;;;4.07;;
27209;SDS011;14721;42.668;23.386;2023-05-07T09:54:36;6.70;;;3.70;;
27209;SDS011;14721;42.668;23.386;2023-05-07T09:57:03;6.82;;;4.05;;
27209;SDS011;14721;42.668;23.386;2023-05-07T09:59:33;5.25;;;3.72;;
27209;SDS011;14721;42.668;23.386;2023-05-07T10:02:01;4.53;;;2.60;;
27209;SDS011;14721;42.668;23.386;2023-05-07T10:04:28;5.43;;;3.40;;
27209;SDS011;14721;42.668;23.386;2023-05-07T10:06:55;7.32;;;3.00;;
27209;SDS011;14721;42.668;23.386;2023-05-07T10:09:23;5.70;;;2.80;;
27209;SDS011;14721;42.668;23.386;2023-05-07T10:11:50;4.57;;;2.40;;
27209;SDS011;14721;42.668;23.386;2023-05-07T10:14:16;4.30;;;2.50;;
27209;SDS011;14721;42.668;23.386;2023-05-07T10:16:44;5.25;;;2.88;;
27209;SDS011;14721;42.668;23.386;2023-05-07T10:19:11;5.07;;;2.88;;
27209;SDS011;14721;42.668;23.386;2023-05-07T10:21:37;4.75;;;3.00;;
27209;SDS011;14721;42.668;23.386;2023-05-07T10:26:34;8.15;;;3.10;;
27209;SDS011;14721;42.668;23.386;2023-05-07T10:29:07;4.05;;;2.78;;
27209;SDS011;14721;42.668;23.386;2023-05-07T10:31:52;5.35;;;2.65;;
27209;SDS011;14721;42.668;23.386;2023-05-07T10:34:24;5.32;;;2.92;;
27209;SDS011;14721;42.668;23.386;2023-05-07T10:36:54;3.45;;;2.60;;
27209;SDS011;14721;42.668;23.386;2023-05-07T10:39:21;5.05;;;2.72;;
27209;SDS011;14721;42.668;23.386;2023-05-07T10:41:47;5.10;;;2.67;;
27209;SDS011;14721;42.668;23.386;2023-05-07T10:44:26;7.85;;;3.90;;
27209;SDS011;14721;42.668;23.386;2023-05-07T10:47:07;5.82;;;3.05;;
27209;SDS011;14721;42.668;23.386;2023-05-07T10:49:46;6.30;;;3.88;;
27209;SDS011;14721;42.668;23.386;2023-05-07T10:52:31;5.28;;;2.83;;
27209;SDS011;14721;42.668;23.386;2023-05-07T10:57:40;5.90;;;3.03;;
27209;SDS011;14721;42.668;23.386;2023-05-07T11:05:24;3.95;;;2.53;;
27209;SDS011;14721;42.668;23.386;2023-05-07T11:07:56;5.63;;;2.60;;
27209;SDS011;14721;42.668;23.386;2023-05-07T11:10:23;4.22;;;2.58;;
27209;SDS011;14721;42.668;23.386;2023-05-07T11:13:08;4.75;;;2.45;;
27209;SDS011;14721;42.668;23.386;2023-05-07T11:15:37;3.72;;;2.33;;
27209;SDS011;14721;42.668;23.386;2023-05-07T11:18:04;4.53;;;2.75;;
27209;SDS011;14721;42.668;23.386;2023-05-07T11:26:06;7.05;;;3.45;;
27209;SDS011;14721;42.668;23.386;2023-05-07T11:28:42;6.93;;;3.78;;
27209;SDS011;14721;42.668;23.386;2023-05-07T11:31:09;6.68;;;3.20;;
27209;SDS011;14721;42.668;23.386;2023-05-07T11:33:35;7.40;;;2.80;;
27209;SDS011;14721;42.668;23.386;2023-05-07T11:36:04;4.68;;;2.67;;
27209;SDS011;14721;42.668;23.386;2023-05-07T11:38:35;5.47;;;3.42;;
27209;SDS011;14721;42.668;23.386;2023-05-07T11:41:02;5.28;;;3.70;;
27209;SDS011;14721;42.668;23.386;2023-05-07T11:43:29;7.65;;;3.85;;
27209;SDS011;14721;42.668;23.386;2023-05-07T11:45:58;7.72;;;3.60;;
27209;SDS011;14721;42.668;23.386;2023-05-07T11:48:36;4.90;;;3.15;;
27209;SDS011;14721;42.668;23.386;2023-05-07T11:51:03;9.15;;;4.70;;
27209;SDS011;14721;42.668;23.386;2023-05-07T11:53:37;4.15;;;3.17;;
27209;SDS011;14721;42.668;23.386;2023-05-07T11:56:07;5.00;;;3.58;;
27209;SDS011;14721;42.668;23.386;2023-05-07T11:58:33;9.82;;;6.15;;
27209;SDS011;14721;42.668;23.386;2023-05-07T12:00:59;5.55;;;3.78;;
27209;SDS011;14721;42.668;23.386;2023-05-07T12:03:24;3.97;;;2.55;;
27209;SDS011;14721;42.668;23.386;2023-05-07T12:05:50;4.60;;;2.85;;
27209;SDS011;14721;42.668;23.386;2023-05-07T12:08:16;6.38;;;2.95;;
27209;SDS011;14721;42.668;23.386;2023-05-07T12:10:42;11.40;;;2.70;;
27209;SDS011;14721;42.668;23.386;2023-05-07T12:13:15;6.35;;;3.13;;
27209;SDS011;14721;42.668;23.386;2023-05-07T12:15:54;6.68;;;2.83;;
27209;SDS011;14721;42.668;23.386;2023-05-07T12:18:21;6.22;;;2.95;;
27209;SDS011;14721;42.668;23.386;2023-05-07T12:20:47;6.15;;;3.28;;
27209;SDS011;14721;42.668;23.386;2023-05-07T12:23:13;7.00;;;3.30;;
27209;SDS011;14721;42.668;23.386;2023-05-07T12:25:40;3.90;;;3.10;;
27209;SDS011;14721;42.668;23.386;2023-05-07T12:28:16;7.43;;;3.90;;
27209;SDS011;14721;42.668;23.386;2023-05-07T12:30:43;4.72;;;3.22;;
27209;SDS011;14721;42.668;23.386;2023-05-07T12:33:10;4.75;;;3.25;;
27209;SDS011;14721;42.668;23.386;2023-05-07T12:35:42;10.05;;;4.30;;
27209;SDS011;14721;42.668;23.386;2023-05-07T12:38:09;5.95;;;4.20;;
27209;SDS011;14721;42.668;23.386;2023-05-07T12:40:43;8.52;;;4.38;;
27209;SDS011;14721;42.668;23.386;2023-05-07T12:43:20;6.55;;;3.63;;
27209;SDS011;14721;42.668;23.386;2023-05-07T12:45:47;11.32;;;5.25;;
27209;SDS011;14721;42.668;23.386;2023-05-07T12:48:14;7.32;;;3.63;;
27209;SDS011;14721;42.668;23.386;2023-05-07T12:50:40;5.53;;;3.00;;
27209;SDS011;14721;42.668;23.386;2023-05-07T12:53:06;3.45;;;2.83;;
27209;SDS011;14721;42.668;23.386;2023-05-07T12:55:40;8.90;;;3.25;;
27209;SDS011;14721;42.668;23.386;2023-05-07T12:58:07;8.32;;;3.90;;
27209;SDS011;14721;42.668;23.386;2023-05-07T13:00:36;8.20;;;4.15;;
27209;SDS011;14721;42.668;23.386;2023-05-07T13:03:02;8.20;;;4.97;;
27209;SDS011;14721;42.668;23.386;2023-05-07T13:05:28;6.38;;;3.60;;
27209;SDS011;14721;42.668;23.386;2023-05-07T13:07:57;8.73;;;4.55;;
27209;SDS011;14721;42.668;23.386;2023-05-07T13:10:23;5.85;;;2.70;;
27209;SDS011;14721;42.668;23.386;2023-05-07T13:12:49;3.38;;;2.53;;
27209;SDS011;14721;42.668;23.386;2023-05-07T13:15:16;6.10;;;2.33;;
27209;SDS011;14721;42.668;23.386;2023-05-07T13:17:41;3.67;;;2.30;;
27209;SDS011;14721;42.668;23.386;2023-05-07T13:20:08;3.17;;;2.15;;
27209;SDS011;14721;42.668;23.386;2023-05-07T13:22:34;5.18;;;2.38;;
27209;SDS011;14721;42.668;23.386;2023-05-07T13:25:00;3.85;;;2.17;;
27209;SDS011;14721;42.668;23.386;2023-05-07T13:27:25;2.70;;;1.88;;
27209;SDS011;14721;42.668;23.386;2023-05-07T13:29:51;4.75;;;2.28;;
27209;SDS011;14721;42.668;23.386;2023-05-07T13:32:16;5.53;;;2.20;;
27209;SDS011;14721;42.668;23.386;2023-05-07T13:34:42;2.95;;;1.75;;
27209;SDS011;14721;42.668;23.386;2023-05-07T13:37:08;2.75;;;1.67;;
27209;SDS011;14721;42.668;23.386;2023-05-07T13:39:36;3.85;;;2.20;;
27209;SDS011;14721;42.668;23.386;2023-05-07T13:42:01;3.65;;;1.95;;
27209;SDS011;14721;42.668;23.386;2023-05-07T13:44:26;3.58;;;1.58;;
27209;SDS011;14721;42.668;23.386;2023-05-07T13:46:54;4.15;;;2.22;;
27209;SDS011;14721;42.668;23.386;2023-05-07T13:49:19;7.15;;;3.20;;
27209;SDS011;14721;42.668;23.386;2023-05-07T13:51:46;4.57;;;2.50;;
27209;SDS011;14721;42.668;23.386;2023-05-07T13:54:11;5.20;;;2.53;;
27209;SDS011;14721;42.668;23.386;2023-05-07T13:56:37;4.30;;;2.92;;
27209;SDS011;14721;42.668;23.386;2023-05-07T13:59:06;5.35;;;2.13;;
27209;SDS011;14721;42.668;23.386;2023-05-07T14:01:31;3.80;;;1.67;;
27209;SDS011;14721;42.668;23.386;2023-05-07T14:03:57;3.58;;;2.28;;
27209;SDS011;14721;42.668;23.386;2023-05-07T14:06:24;3.45;;;2.20;;
27209;SDS011;14721;42.668;23.386;2023-05-07T14:08:50;4.78;;;2.40;;
27209;SDS011;14721;42.668;23.386;2023-05-07T14:11:15;5.03;;;2.42;;
27209;SDS011;14721;42.668;23.386;2023-05-07T14:13:41;4.80;;;2.30;;
27209;SDS011;14721;42.668;23.386;2023-05-07T14:16:07;3.72;;;2.10;;
27209;SDS011;14721;42.668;23.386;2023-05-07T14:18:32;3.05;;;1.92;;
27209;SDS011;14721;42.668;23.386;2023-05-07T14:20:59;6.20;;;2.30;;
27209;SDS011;14721;42.668;23.386;2023-05-07T14:23:28;3.90;;;1.90;;
27209;SDS011;14721;42.668;23.386;2023-05-07T14:25:53;5.00;;;2.50;;
27209;SDS011;14721;42.668;23.386;2023-05-07T14:28:19;3.95;;;2.30;;
27209;SDS011;14721;42.668;23.386;2023-05-07T14:30:44;3.95;;;2.25;;
27209;SDS011;14721;42.668;23.386;2023-05-07T14:33:10;4.47;;;2.72;;
27209;SDS011;14721;42.668;23.386;2023-05-07T14:35:35;5.40;;;2.10;;
27209;SDS011;14721;42.668;23.386;2023-05-07T14:38:01;5.88;;;2.95;;
27209;SDS011;14721;42.668;23.386;2023-05-07T14:40:27;6.05;;;2.28;;
27209;SDS011;14721;42.668;23.386;2023-05-07T14:42:52;5.22;;;2.65;;
27209;SDS011;14721;42.668;23.386;2023-05-07T14:45:18;5.82;;;2.30;;